createdAt,value
2022-10-12T00:01:08.085Z,2.10
2022-10-12T00:03:36.962Z,1.23
2022-10-12T00:06:06.377Z,6.03
2022-10-12T00:08:35.370Z,2.20
2022-10-12T00:11:04.389Z,2.40
2022-10-12T00:13:32.862Z,0.50
2022-10-12T00:16:04.247Z,0.50
2022-10-12T00:18:34.432Z,7.93
2022-10-12T00:21:03.796Z,0.50
2022-10-12T00:23:33.217Z,1.23
2022-10-12T00:26:03.209Z,3.00
2022-10-12T00:28:31.867Z,1.27
2022-10-12T00:31:00.451Z,0.33
2022-10-12T00:33:29.497Z,0.70
2022-10-12T00:35:59.343Z,1.47
2022-10-12T00:38:27.897Z,1.13
2022-10-12T00:40:56.387Z,1.60
2022-10-12T00:43:29.377Z,1.70
2022-10-12T00:45:58.111Z,1.40
2022-10-12T00:48:26.740Z,2.33
2022-10-12T00:50:55.682Z,0.40
2022-10-12T00:53:28.269Z,1.40
2022-10-12T00:55:58.573Z,1.53
2022-10-12T00:58:27.762Z,2.00
2022-10-12T01:00:56.233Z,0.30
2022-10-12T01:03:25.295Z,3.57
2022-10-12T01:05:53.898Z,1.83
2022-10-12T01:08:22.689Z,1.60
2022-10-12T01:10:52.600Z,1.60
2022-10-12T01:13:21.203Z,0.50
2022-10-12T01:15:53.361Z,0.40
2022-10-12T01:18:23.882Z,0.87
2022-10-12T01:21:10.321Z,0.83
2022-10-12T01:24:00.490Z,1.10
2022-10-12T01:26:41.190Z,0.60
2022-10-12T01:29:15.481Z,0.40
2022-10-12T01:31:47.952Z,4.20
2022-10-12T01:34:20.282Z,0.40
2022-10-12T01:36:50.925Z,2.73
2022-10-12T01:39:22.476Z,0.30
2022-10-12T01:41:53.010Z,3.30
2022-10-12T01:44:22.460Z,0.70
2022-10-12T01:46:53.049Z,1.17
2022-10-12T01:49:23.907Z,0.50
2022-10-12T01:51:57.230Z,1.27
2022-10-12T01:54:28.880Z,0.67
2022-10-12T01:56:59.729Z,0.30
2022-10-12T01:59:32.937Z,0.63
2022-10-12T02:02:06.983Z,0.77
2022-10-12T02:04:38.517Z,5.43
2022-10-12T02:07:10.702Z,3.93
2022-10-12T02:09:39.609Z,0.27
2022-10-12T02:12:11.123Z,0.40
2022-10-12T02:14:42.191Z,0.50
2022-10-12T02:17:14.141Z,2.97
2022-10-12T02:19:43.771Z,1.33
2022-10-12T02:22:13.314Z,0.40
2022-10-12T02:24:42.739Z,2.83
2022-10-12T02:27:12.564Z,0.60
2022-10-12T02:29:42.135Z,1.83
2022-10-12T02:32:16.542Z,2.50
2022-10-12T02:34:46.206Z,0.80
2022-10-12T02:37:19.553Z,0.60
2022-10-12T02:39:51.669Z,2.43
2022-10-12T02:42:23.596Z,1.37
2022-10-12T02:44:53.898Z,1.07
2022-10-12T02:47:25.502Z,0.87
2022-10-12T02:49:54.194Z,0.67
2022-10-12T02:52:22.832Z,0.60
2022-10-12T02:54:51.341Z,3.00
2022-10-12T02:57:19.781Z,2.67
2022-10-12T02:59:48.378Z,1.80
2022-10-12T03:02:16.913Z,0.30
2022-10-12T03:04:46.979Z,1.53
2022-10-12T03:07:15.534Z,0.53
2022-10-12T03:09:44.085Z,1.67
2022-10-12T03:12:13.497Z,0.40
2022-10-12T03:14:42.024Z,3.93
2022-10-12T03:17:10.727Z,0.50
2022-10-12T03:19:39.944Z,2.60
2022-10-12T03:22:09.893Z,0.50
2022-10-12T03:24:38.490Z,0.50
2022-10-12T03:27:06.944Z,1.90
2022-10-12T03:29:35.378Z,0.33
2022-10-12T03:32:03.980Z,1.60
2022-10-12T03:34:32.424Z,1.40
2022-10-12T03:37:00.841Z,0.70
2022-10-12T03:39:30.865Z,0.43
2022-10-12T03:41:59.298Z,0.43
2022-10-12T03:44:27.731Z,0.40
2022-10-12T03:46:56.342Z,0.70
2022-10-12T03:49:24.788Z,0.57
2022-10-12T03:51:53.205Z,1.33
2022-10-12T03:54:21.844Z,1.47
2022-10-12T03:56:51.649Z,6.13
2022-10-12T03:59:20.065Z,0.93
2022-10-12T04:01:48.698Z,4.37
2022-10-12T04:04:17.183Z,0.93
2022-10-12T04:06:45.761Z,1.17
2022-10-12T04:09:14.469Z,2.40
2022-10-12T04:11:42.897Z,0.50
2022-10-12T04:14:12.745Z,1.77
2022-10-12T04:16:41.406Z,0.97
2022-10-12T04:19:11.990Z,0.30
2022-10-12T04:21:40.446Z,0.77
2022-10-12T04:24:09.312Z,0.50
2022-10-12T04:26:37.881Z,0.80
2022-10-12T04:29:06.426Z,2.50
2022-10-12T04:31:36.420Z,0.50
2022-10-12T04:34:04.857Z,0.87
2022-10-12T04:36:33.281Z,3.00
2022-10-12T04:39:01.822Z,2.00
2022-10-12T04:41:30.527Z,0.40
2022-10-12T04:43:58.957Z,13.60
2022-10-12T04:46:27.697Z,3.60
2022-10-12T04:48:57.538Z,30.83
2022-10-12T04:51:25.974Z,51.33
2022-10-12T04:53:54.701Z,4.37
2022-10-12T04:56:23.158Z,0.60
2022-10-12T04:58:51.575Z,0.60
2022-10-12T05:01:20.242Z,1.33
2022-10-12T05:03:48.703Z,5.57
2022-10-12T05:06:19.713Z,0.90
2022-10-12T05:08:48.477Z,9.87
2022-10-12T05:11:16.998Z,22.70
2022-10-12T05:13:45.528Z,4.80
2022-10-12T05:16:14.295Z,0.67
2022-10-12T05:18:42.733Z,0.50
2022-10-12T05:21:11.178Z,1.60
2022-10-12T05:23:41.128Z,1.17
2022-10-12T05:26:09.659Z,2.20
2022-10-12T05:28:41.078Z,2.90
2022-10-12T05:31:10.065Z,3.20
2022-10-12T05:33:38.518Z,1.67
2022-10-12T05:36:07.197Z,0.43
2022-10-12T05:38:35.978Z,0.63
2022-10-12T05:41:05.817Z,4.30
2022-10-12T05:43:34.254Z,0.80
2022-10-12T05:46:02.846Z,4.20
2022-10-12T05:48:31.346Z,7.97
2022-10-12T05:50:59.778Z,7.17
2022-10-12T05:53:28.579Z,11.27
2022-10-12T05:55:57.507Z,0.60
2022-10-12T05:58:27.764Z,3.20
2022-10-12T06:00:56.586Z,4.83
2022-10-12T06:03:26.354Z,0.83
2022-10-12T06:05:54.909Z,1.77
2022-10-12T06:08:23.507Z,23.70
2022-10-12T06:10:52.725Z,27.83
2022-10-12T06:13:21.181Z,66.03
2022-10-12T06:15:51.449Z,34.00
2022-10-12T06:18:20.166Z,44.93
2022-10-12T06:20:49.394Z,55.73
2022-10-12T06:23:18.200Z,66.03
2022-10-12T06:25:47.749Z,75.27
2022-10-12T06:28:16.233Z,153.87
2022-10-12T06:30:45.122Z,108.70
2022-10-12T06:33:14.961Z,40.17
2022-10-12T06:35:43.399Z,27.73
2022-10-12T06:38:11.958Z,26.80
2022-10-12T06:40:40.414Z,29.77
2022-10-12T06:43:08.846Z,45.97
2022-10-12T06:45:38.067Z,57.87
2022-10-12T06:48:07.198Z,94.27
2022-10-12T06:50:37.259Z,64.90
2022-10-12T06:53:06.078Z,38.03
2022-10-12T06:55:34.518Z,37.20
2022-10-12T06:58:02.959Z,37.73
2022-10-12T07:00:31.700Z,47.97
2022-10-12T07:03:00.159Z,73.93
2022-10-12T07:05:29.101Z,93.27
2022-10-12T07:07:59.266Z,87.07
2022-10-12T07:10:28.253Z,46.80
2022-10-12T07:12:56.683Z,64.07
2022-10-12T07:15:25.301Z,43.63
2022-10-12T07:17:53.743Z,116.10
2022-10-12T07:20:22.205Z,122.10
2022-10-12T07:22:50.870Z,150.03
2022-10-12T07:25:22.293Z,183.60
2022-10-12T07:27:51.026Z,190.00
2022-10-12T07:30:19.839Z,125.67
2022-10-12T07:32:48.258Z,147.77
2022-10-12T07:35:16.710Z,148.40
2022-10-12T07:37:45.353Z,163.50
2022-10-12T07:40:13.764Z,149.60
2022-10-12T07:43:11.561Z,86.30
2022-10-12T07:45:32.233Z,127.13
2022-10-12T07:48:00.786Z,60.33
2022-10-12T07:50:29.197Z,222.43
2022-10-12T07:52:57.742Z,203.43
2022-10-12T07:55:26.285Z,128.27
2022-10-12T07:57:56.090Z,181.80
2022-10-12T08:00:24.698Z,110.00
2022-10-12T08:02:53.322Z,141.20
2022-10-12T08:05:24.776Z,188.27
2022-10-12T08:07:53.605Z,134.80
2022-10-12T08:10:22.143Z,146.27
2022-10-12T08:12:52.297Z,286.87
2022-10-12T08:15:22.481Z,205.90
2022-10-12T08:17:51.897Z,104.67
2022-10-12T08:20:20.361Z,128.53
2022-10-12T08:22:48.973Z,219.13
2022-10-12T08:25:17.589Z,236.70
2022-10-12T08:27:46.013Z,269.37
2022-10-12T08:30:15.163Z,170.20
2022-10-12T08:32:45.126Z,146.53
2022-10-12T08:35:13.547Z,160.47
2022-10-12T08:37:42.148Z,76.93
2022-10-12T08:40:12.342Z,8.07
2022-10-12T08:42:47.426Z,1.63
2022-10-12T08:45:25.509Z,7.93
2022-10-12T08:48:00.653Z,4.97
2022-10-12T08:50:31.538Z,1.37
2022-10-12T08:53:02.249Z,2.10
2022-10-12T08:55:36.265Z,1.27
2022-10-12T08:58:05.226Z,2.00
2022-10-12T09:00:35.965Z,2.67
2022-10-12T09:03:10.864Z,1.43
2022-10-12T09:05:41.894Z,3.50
2022-10-12T09:08:14.381Z,0.80
2022-10-12T09:10:46.378Z,0.90
2022-10-12T09:13:24.697Z,1.20
2022-10-12T09:15:54.134Z,0.87
2022-10-12T09:18:27.638Z,0.90
2022-10-12T09:20:56.519Z,1.13
2022-10-12T09:23:26.083Z,0.70
2022-10-12T09:25:56.150Z,1.90
2022-10-12T09:28:27.725Z,0.80
2022-10-12T09:31:03.497Z,0.67
2022-10-12T09:33:38.936Z,2.07
2022-10-12T09:36:08.042Z,0.53
2022-10-12T09:38:36.485Z,1.03
2022-10-12T09:41:04.934Z,0.60
2022-10-12T09:43:33.586Z,0.97
2022-10-12T09:46:03.555Z,0.60
2022-10-12T09:48:33.379Z,0.97
2022-10-12T09:51:02.862Z,1.80
2022-10-12T09:53:33.475Z,1.87
2022-10-12T09:56:06.990Z,2.47
2022-10-12T09:58:39.379Z,4.00
2022-10-12T10:01:17.993Z,2.40
2022-10-12T10:03:48.917Z,0.97
2022-10-12T10:06:24.153Z,0.93
2022-10-12T10:08:52.569Z,1.13
2022-10-12T10:11:23.369Z,2.53
2022-10-12T10:13:53.333Z,0.97
2022-10-12T10:16:23.434Z,1.50
2022-10-12T10:18:57.250Z,1.23
2022-10-12T10:21:30.773Z,0.70
2022-10-12T10:24:00.065Z,0.60
2022-10-12T10:26:29.378Z,2.13
2022-10-12T10:28:59.437Z,2.37
2022-10-12T10:31:29.973Z,0.83
2022-10-12T10:34:29.643Z,3.80
2022-10-12T10:36:59.770Z,0.23
2022-10-12T10:39:29.267Z,0.87
2022-10-12T10:41:57.742Z,0.50
2022-10-12T10:44:27.951Z,1.23
2022-10-12T10:46:57.145Z,1.53
2022-10-12T10:49:27.886Z,1.47
2022-10-12T10:51:58.430Z,4.13
2022-10-12T10:54:30.403Z,1.87
2022-10-12T10:57:02.198Z,1.83
2022-10-12T10:59:38.446Z,0.53
2022-10-12T11:02:13.838Z,5.33
2022-10-12T11:04:43.575Z,0.40
2022-10-12T11:07:18.759Z,2.67
2022-10-12T11:09:51.421Z,2.27
2022-10-12T11:12:27.317Z,0.63
2022-10-12T11:15:00.954Z,0.43
2022-10-12T11:17:33.698Z,2.87
2022-10-12T11:20:08.153Z,1.80
2022-10-12T11:22:42.349Z,0.67
2022-10-12T11:25:16.442Z,3.07
2022-10-12T11:27:49.022Z,2.63
2022-10-12T11:30:22.758Z,2.80
2022-10-12T11:32:53.777Z,4.00
2022-10-12T11:35:25.405Z,1.47
2022-10-12T11:37:55.961Z,0.90
2022-10-12T11:41:00.169Z,1.23
2022-10-12T11:43:19.405Z,2.37
2022-10-12T11:45:49.535Z,1.63
2022-10-12T11:48:21.653Z,0.60
2022-10-12T11:50:52.951Z,1.17
2022-10-12T11:53:25.394Z,2.93
2022-10-12T11:56:01.666Z,1.27
2022-10-12T11:58:55.856Z,1.20
2022-10-12T12:01:29.618Z,2.73
2022-10-12T12:04:39.990Z,0.80
2022-10-12T12:07:04.987Z,1.93
2022-10-12T12:09:35.239Z,1.80
2022-10-12T12:12:24.395Z,1.17
2022-10-12T12:15:10.529Z,1.63
2022-10-12T12:17:39.032Z,0.57
2022-10-12T12:20:22.273Z,2.07
2022-10-12T12:22:52.131Z,1.23
2022-10-12T12:25:30.803Z,1.20
2022-10-12T12:28:01.678Z,1.60
2022-10-12T12:30:32.288Z,5.00
2022-10-12T12:33:01.977Z,3.23
2022-10-12T12:35:32.866Z,4.50
2022-10-12T12:38:19.198Z,2.13
2022-10-12T12:41:04.789Z,2.20
2022-10-12T12:43:39.677Z,1.33
2022-10-12T12:46:10.698Z,0.73
2022-10-12T12:49:12.082Z,2.70
2022-10-12T12:51:42.901Z,3.50
2022-10-12T12:54:18.607Z,5.53
2022-10-12T12:56:55.446Z,3.50
2022-10-12T12:59:34.611Z,1.43
2022-10-12T13:02:14.893Z,1.90
2022-10-12T13:04:51.078Z,1.87
2022-10-12T13:07:38.378Z,5.93
2022-10-12T13:10:18.845Z,2.40
2022-10-12T13:13:02.172Z,4.30
2022-10-12T13:15:48.295Z,2.57
2022-10-12T13:18:47.182Z,3.83
2022-10-12T13:21:18.381Z,1.10
2022-10-12T13:23:48.151Z,1.50
2022-10-12T13:26:19.806Z,3.43
2022-10-12T13:28:50.343Z,2.43
2022-10-12T13:31:21.130Z,2.80
2022-10-12T13:33:59.318Z,2.07
2022-10-12T13:36:28.891Z,3.23
2022-10-12T13:38:58.107Z,6.10
2022-10-12T13:41:27.390Z,0.60
2022-10-12T13:43:57.510Z,3.70
2022-10-12T13:46:41.288Z,4.17
2022-10-12T13:49:18.356Z,3.23
2022-10-12T13:51:48.247Z,4.80
2022-10-12T13:54:17.518Z,2.67
2022-10-12T13:56:46.810Z,1.50
2022-10-12T13:59:18.813Z,1.80
2022-10-12T14:01:51.246Z,0.97
2022-10-12T14:04:21.384Z,1.10
2022-10-12T14:06:51.425Z,2.40
2022-10-12T14:09:21.558Z,0.73
2022-10-12T14:11:51.714Z,2.77
2022-10-12T14:14:21.983Z,3.13
2022-10-12T14:16:51.838Z,0.67
2022-10-12T14:19:22.658Z,1.83
2022-10-12T14:21:51.198Z,1.30
2022-10-12T14:24:20.891Z,1.63
2022-10-12T14:26:55.266Z,0.43
2022-10-12T14:29:28.023Z,1.00
2022-10-12T14:31:57.706Z,1.27
2022-10-12T14:34:40.981Z,1.63
2022-10-12T14:37:24.167Z,2.13
2022-10-12T14:39:59.415Z,0.30
2022-10-12T14:42:33.067Z,1.33
2022-10-12T14:45:01.733Z,0.47
2022-10-12T14:47:31.476Z,0.83
2022-10-12T14:50:00.833Z,0.63
2022-10-12T14:52:36.265Z,1.60
2022-10-12T14:55:05.199Z,2.07
2022-10-12T14:57:34.300Z,0.53
2022-10-12T15:00:04.154Z,0.80
2022-10-12T15:02:33.594Z,1.37
2022-10-12T15:05:02.463Z,2.07
2022-10-12T15:07:33.777Z,1.63
2022-10-12T15:10:02.369Z,1.40
2022-10-12T15:12:31.167Z,0.37
2022-10-12T15:15:01.191Z,1.13
2022-10-12T15:17:29.938Z,1.50
2022-10-12T15:19:58.379Z,1.80
2022-10-12T15:22:28.573Z,4.77
2022-10-12T15:24:58.565Z,0.60
2022-10-12T15:27:27.014Z,0.83
2022-10-12T15:29:55.570Z,2.03
2022-10-12T15:32:24.175Z,1.90
2022-10-12T15:34:53.017Z,2.10
2022-10-12T15:37:21.569Z,1.70
2022-10-12T15:39:50.238Z,3.53
2022-10-12T15:42:20.067Z,2.13
2022-10-12T15:44:48.629Z,1.13
2022-10-12T15:47:17.185Z,0.50
2022-10-12T15:49:45.618Z,1.10
2022-10-12T15:52:14.153Z,2.10
2022-10-12T15:54:46.763Z,1.67
2022-10-12T15:57:17.346Z,2.73
2022-10-12T15:59:48.921Z,3.17
2022-10-12T16:02:17.411Z,3.70
2022-10-12T16:04:45.887Z,4.73
2022-10-12T16:07:16.023Z,5.60
2022-10-12T16:09:44.723Z,3.17
2022-10-12T16:12:13.227Z,3.27
2022-10-12T16:14:41.774Z,3.27
2022-10-12T16:17:11.823Z,1.77
2022-10-12T16:19:40.615Z,4.23
2022-10-12T16:22:10.025Z,6.03
2022-10-12T16:24:38.521Z,1.37
2022-10-12T16:27:07.034Z,4.03
2022-10-12T16:29:37.322Z,1.70
2022-10-12T16:32:05.889Z,1.90
2022-10-12T16:34:35.770Z,4.07
2022-10-12T16:37:04.373Z,4.33
2022-10-12T16:39:32.812Z,2.73
2022-10-12T16:42:01.469Z,1.90
2022-10-12T16:44:29.989Z,1.97
2022-10-12T16:46:58.422Z,4.40
2022-10-12T16:49:27.047Z,6.20
2022-10-12T16:51:57.066Z,4.40
2022-10-12T16:54:28.813Z,2.97
2022-10-12T16:56:57.506Z,4.53
2022-10-12T16:59:26.055Z,6.47
2022-10-12T17:01:54.621Z,3.80
2022-10-12T17:04:23.277Z,3.17
2022-10-12T17:06:52.933Z,3.20
2022-10-12T17:09:23.168Z,7.20
2022-10-12T17:11:53.531Z,5.33
2022-10-12T17:14:22.011Z,5.13
2022-10-12T17:16:50.591Z,2.77
2022-10-12T17:19:19.788Z,3.40
2022-10-12T17:21:48.710Z,4.80
2022-10-12T17:24:18.014Z,4.87
2022-10-12T17:26:48.018Z,3.63
2022-10-12T17:29:18.307Z,3.37
2022-10-12T17:31:47.235Z,1.37
2022-10-12T17:34:19.294Z,4.10
2022-10-12T17:36:47.830Z,6.43
2022-10-12T17:39:16.654Z,1.97
2022-10-12T17:41:45.767Z,4.17
2022-10-12T17:44:15.572Z,1.97
2022-10-12T17:46:44.722Z,5.43
2022-10-12T17:49:14.337Z,4.27
2022-10-12T17:51:43.160Z,3.23
2022-10-12T17:54:11.910Z,7.07
2022-10-12T17:56:40.711Z,3.07
2022-10-12T17:59:09.201Z,3.40
2022-10-12T18:01:39.163Z,5.47
2022-10-12T18:04:09.019Z,2.43
2022-10-12T18:06:37.457Z,5.17
2022-10-12T18:09:06.811Z,6.73
2022-10-12T18:11:35.478Z,3.17
2022-10-12T18:14:04.222Z,6.73
2022-10-12T18:16:33.759Z,4.60
2022-10-12T18:19:04.670Z,7.20
2022-10-12T18:21:34.690Z,7.63
2022-10-12T18:24:03.729Z,1.43
2022-10-12T18:26:33.260Z,5.93
2022-10-12T18:29:02.162Z,9.40
2022-10-12T18:31:31.169Z,5.93
2022-10-12T18:34:00.074Z,6.97
2022-10-12T18:36:29.931Z,6.30
2022-10-12T18:39:01.639Z,8.57
2022-10-12T18:41:30.158Z,4.67
2022-10-12T18:43:58.907Z,8.70
2022-10-12T18:46:28.422Z,5.37
2022-10-12T18:48:57.146Z,7.87
2022-10-12T18:51:27.106Z,5.70
2022-10-12T18:53:57.342Z,4.33
2022-10-12T18:56:26.236Z,7.10
2022-10-12T18:58:55.135Z,4.27
2022-10-12T19:01:24.790Z,6.33
2022-10-12T19:03:54.142Z,5.67
2022-10-12T19:06:23.373Z,8.33
2022-10-12T19:08:52.132Z,3.53
2022-10-12T19:11:23.225Z,7.80
2022-10-12T19:13:54.878Z,7.10
2022-10-12T19:16:23.959Z,6.57
2022-10-12T19:18:56.829Z,8.87
2022-10-12T19:21:25.554Z,3.00
2022-10-12T19:23:54.006Z,8.03
2022-10-12T19:26:24.906Z,7.73
2022-10-12T19:28:55.434Z,7.37
2022-10-12T19:31:25.465Z,7.80
2022-10-12T19:33:56.031Z,6.90
2022-10-12T19:36:24.493Z,10.83
2022-10-12T19:38:53.074Z,4.47
2022-10-12T19:41:21.883Z,8.63
2022-10-12T19:43:53.325Z,8.37
2022-10-12T19:46:22.173Z,9.47
2022-10-12T19:48:51.410Z,7.30
2022-10-12T19:51:20.397Z,5.10
2022-10-12T19:53:48.868Z,7.07
2022-10-12T19:56:18.665Z,6.40
2022-10-12T19:58:47.668Z,2.87
2022-10-12T20:01:18.978Z,2.53
2022-10-12T20:03:50.207Z,5.83
2022-10-12T20:06:18.898Z,6.10
2022-10-12T20:08:47.780Z,6.90
2022-10-12T20:11:22.557Z,10.60
2022-10-12T20:13:52.634Z,6.80
2022-10-12T20:16:22.922Z,5.20
2022-10-12T20:18:51.647Z,7.27
2022-10-12T20:21:21.445Z,5.83
2022-10-12T20:23:50.374Z,9.03
2022-10-12T20:26:19.782Z,4.13
2022-10-12T20:28:48.634Z,8.30
2022-10-12T20:31:18.730Z,11.47
2022-10-12T20:33:51.138Z,7.23
2022-10-12T20:36:21.862Z,8.83
2022-10-12T20:38:50.326Z,6.80
2022-10-12T20:41:18.797Z,4.97
2022-10-12T20:43:47.370Z,8.87
2022-10-12T20:46:17.106Z,7.30
2022-10-12T20:48:46.296Z,10.00
2022-10-12T20:51:19.749Z,5.87
2022-10-12T20:53:48.172Z,8.83
2022-10-12T20:56:16.734Z,4.50
2022-10-12T20:58:45.275Z,10.20
2022-10-12T21:01:14.866Z,8.37
2022-10-12T21:03:43.533Z,6.90
2022-10-12T21:06:12.877Z,8.37
2022-10-12T21:08:42.763Z,6.23
2022-10-12T21:11:12.542Z,5.70
2022-10-12T21:13:42.030Z,4.43
2022-10-12T21:16:10.510Z,6.37
2022-10-12T21:18:39.247Z,5.93
2022-10-12T21:21:11.745Z,6.00
2022-10-12T21:23:40.613Z,4.33
2022-10-12T21:26:14.373Z,12.30
2022-10-12T21:28:42.960Z,10.23
2022-10-12T21:31:11.885Z,6.37
2022-10-12T21:33:40.678Z,6.77
2022-10-12T21:36:10.167Z,6.30
2022-10-12T21:38:38.889Z,4.40
2022-10-12T21:41:08.297Z,3.60
2022-10-12T21:43:38.575Z,4.63
2022-10-12T21:46:08.022Z,7.17
2022-10-12T21:48:37.269Z,7.03
2022-10-12T21:51:06.054Z,5.73
2022-10-12T21:53:35.941Z,4.73
2022-10-12T21:56:07.660Z,7.40
2022-10-12T21:58:36.512Z,7.57
2022-10-12T22:01:07.672Z,9.10
2022-10-12T22:03:36.475Z,6.13
2022-10-12T22:06:05.468Z,9.50
2022-10-12T22:08:34.343Z,5.60
2022-10-12T22:11:06.273Z,5.00
2022-10-12T22:13:34.847Z,8.83
2022-10-12T22:16:03.979Z,5.30
2022-10-12T22:18:33.826Z,7.73
2022-10-12T22:21:03.871Z,2.00
2022-10-12T22:23:32.390Z,6.57
2022-10-12T22:26:02.235Z,6.47
2022-10-12T22:28:30.886Z,7.63
2022-10-12T22:31:00.762Z,4.70
2022-10-12T22:33:29.202Z,8.80
2022-10-12T22:36:00.234Z,5.73
2022-10-12T22:38:29.246Z,7.23
2022-10-12T22:40:58.514Z,2.17
2022-10-12T22:43:27.151Z,6.87
2022-10-12T22:45:55.705Z,4.10
2022-10-12T22:48:24.957Z,4.73
2022-10-12T22:50:53.705Z,7.27
2022-10-12T22:53:24.236Z,6.13
2022-10-12T22:55:57.603Z,6.13
2022-10-12T22:58:26.215Z,4.00
2022-10-12T23:00:55.100Z,7.27
2022-10-12T23:03:23.727Z,6.10
2022-10-12T23:05:52.449Z,10.03
2022-10-12T23:08:21.043Z,10.50
2022-10-12T23:10:50.990Z,4.57
2022-10-12T23:13:19.421Z,5.73
2022-10-12T23:15:48.009Z,9.10
2022-10-12T23:18:16.973Z,10.43
2022-10-12T23:20:45.397Z,3.30
2022-10-12T23:23:13.935Z,8.83
2022-10-12T23:25:42.475Z,8.80
2022-10-12T23:28:12.500Z,6.30
2022-10-12T23:30:40.946Z,6.07
2022-10-12T23:33:09.494Z,5.07
2022-10-12T23:35:38.075Z,10.10
2022-10-12T23:38:06.510Z,8.60
2022-10-12T23:40:36.036Z,7.60
2022-10-12T23:43:04.680Z,9.97
2022-10-12T23:45:34.687Z,7.17
2022-10-12T23:48:03.190Z,5.73
2022-10-12T23:50:31.639Z,4.87
2022-10-12T23:53:00.282Z,9.03
2022-10-12T23:55:29.166Z,6.10
2022-10-12T23:57:57.623Z,10.17
